sensor_id;sensor_type;location;lat;lon;timestamp;P1;durP1;ratioP1;P2;durP2;ratioP2
34892;SDS011;21106;52.240;20.902;2023-07-08T00:13:05;6.10;;;3.60;;
34892;SDS011;21106;52.240;20.902;2023-07-08T00:18:15;9.70;;;4.50;;
34892;SDS011;21106;52.240;20.902;2023-07-08T00:23:27;11.10;;;4.70;;
34892;SDS011;21106;52.240;20.902;2023-07-08T00:30:07;15.80;;;5.30;;
34892;SDS011;21106;52.240;20.902;2023-07-08T00:48:19;8.70;;;5.30;;
34892;SDS011;21106;52.240;20.902;2023-07-08T00:53:31;13.10;;;4.90;;
34892;SDS011;21106;52.240;20.902;2023-07-08T00:58:40;8.30;;;5.00;;
34892;SDS011;21106;52.240;20.902;2023-07-08T01:04:04;12.80;;;5.10;;
34892;SDS011;21106;52.240;20.902;2023-07-08T01:09:14;13.60;;;4.80;;
34892;SDS011;21106;52.240;20.902;2023-07-08T01:14:21;10.00;;;4.60;;
34892;SDS011;21106;52.240;20.902;2023-07-08T01:19:29;13.70;;;5.20;;
34892;SDS011;21106;52.240;20.902;2023-07-08T01:24:40;7.90;;;4.60;;
34892;SDS011;21106;52.240;20.902;2023-07-08T01:36:23;8.10;;;4.50;;
34892;SDS011;21106;52.240;20.902;2023-07-08T01:53:08;9.20;;;4.40;;
34892;SDS011;21106;52.240;20.902;2023-07-08T01:58:17;15.80;;;5.00;;
34892;SDS011;21106;52.240;20.902;2023-07-08T02:03:24;10.00;;;4.50;;
34892;SDS011;21106;52.240;20.902;2023-07-08T02:32:38;12.60;;;5.20;;
34892;SDS011;21106;52.240;20.902;2023-07-08T02:37:47;6.70;;;4.40;;
34892;SDS011;21106;52.240;20.902;2023-07-08T02:42:53;7.40;;;3.90;;
34892;SDS011;21106;52.240;20.902;2023-07-08T02:48:06;13.50;;;4.60;;
34892;SDS011;21106;52.240;20.902;2023-07-08T03:16:38;11.90;;;5.30;;
34892;SDS011;21106;52.240;20.902;2023-07-08T03:21:44;9.10;;;4.00;;
34892;SDS011;21106;52.240;20.902;2023-07-08T03:26:51;15.90;;;4.80;;
34892;SDS011;21106;52.240;20.902;2023-07-08T03:32:01;8.20;;;4.70;;
34892;SDS011;21106;52.240;20.902;2023-07-08T03:54:32;10.80;;;4.40;;
34892;SDS011;21106;52.240;20.902;2023-07-08T03:59:38;7.30;;;4.40;;
34892;SDS011;21106;52.240;20.902;2023-07-08T04:11:34;7.60;;;4.80;;
34892;SDS011;21106;52.240;20.902;2023-07-08T04:28:16;8.40;;;4.00;;
34892;SDS011;21106;52.240;20.902;2023-07-08T04:33:23;10.20;;;4.80;;
34892;SDS011;21106;52.240;20.902;2023-07-08T04:38:29;7.30;;;4.20;;
34892;SDS011;21106;52.240;20.902;2023-07-08T04:43:35;17.30;;;10.40;;
34892;SDS011;21106;52.240;20.902;2023-07-08T04:54:30;12.00;;;4.10;;
34892;SDS011;21106;52.240;20.902;2023-07-08T04:59:36;8.00;;;4.00;;
34892;SDS011;21106;52.240;20.902;2023-07-08T05:45:15;22.00;;;5.00;;
34892;SDS011;21106;52.240;20.902;2023-07-08T05:50:22;17.90;;;4.80;;
34892;SDS011;21106;52.240;20.902;2023-07-08T05:55:28;23.20;;;4.40;;
34892;SDS011;21106;52.240;20.902;2023-07-08T06:00:34;14.30;;;3.70;;
34892;SDS011;21106;52.240;20.902;2023-07-08T06:05:41;6.40;;;3.10;;
34892;SDS011;21106;52.240;20.902;2023-07-08T06:11:25;14.00;;;3.40;;
34892;SDS011;21106;52.240;20.902;2023-07-08T06:16:48;9.30;;;2.70;;
34892;SDS011;21106;52.240;20.902;2023-07-08T06:21:54;11.20;;;2.70;;
34892;SDS011;21106;52.240;20.902;2023-07-08T06:27:03;5.90;;;2.60;;
34892;SDS011;21106;52.240;20.902;2023-07-08T06:32:09;10.40;;;3.00;;
34892;SDS011;21106;52.240;20.902;2023-07-08T06:37:16;4.70;;;3.00;;
34892;SDS011;21106;52.240;20.902;2023-07-08T06:42:22;6.70;;;3.00;;
34892;SDS011;21106;52.240;20.902;2023-07-08T06:47:38;6.30;;;2.70;;
34892;SDS011;21106;52.240;20.902;2023-07-08T06:52:45;4.00;;;2.10;;
34892;SDS011;21106;52.240;20.902;2023-07-08T06:57:51;4.90;;;2.60;;
34892;SDS011;21106;52.240;20.902;2023-07-08T07:02:57;7.20;;;2.00;;
34892;SDS011;21106;52.240;20.902;2023-07-08T07:08:04;5.40;;;2.30;;
34892;SDS011;21106;52.240;20.902;2023-07-08T07:13:10;7.20;;;2.30;;
34892;SDS011;21106;52.240;20.902;2023-07-08T07:18:17;4.70;;;2.20;;
34892;SDS011;21106;52.240;20.902;2023-07-08T07:23:23;16.70;;;2.10;;
34892;SDS011;21106;52.240;20.902;2023-07-08T07:28:30;5.40;;;2.50;;
34892;SDS011;21106;52.240;20.902;2023-07-08T07:33:37;6.60;;;2.60;;
34892;SDS011;21106;52.240;20.902;2023-07-08T07:38:46;12.20;;;2.60;;
34892;SDS011;21106;52.240;20.902;2023-07-08T07:43:52;5.20;;;2.00;;
34892;SDS011;21106;52.240;20.902;2023-07-08T07:48:59;3.80;;;1.70;;
34892;SDS011;21106;52.240;20.902;2023-07-08T07:54:05;6.60;;;1.60;;
34892;SDS011;21106;52.240;20.902;2023-07-08T07:59:12;3.40;;;1.60;;
34892;SDS011;21106;52.240;20.902;2023-07-08T08:04:19;3.10;;;1.60;;
34892;SDS011;21106;52.240;20.902;2023-07-08T08:09:26;4.20;;;1.90;;
34892;SDS011;21106;52.240;20.902;2023-07-08T08:14:32;4.10;;;1.80;;
34892;SDS011;21106;52.240;20.902;2023-07-08T08:19:40;10.20;;;4.40;;
34892;SDS011;21106;52.240;20.902;2023-07-08T08:24:46;4.90;;;1.60;;
34892;SDS011;21106;52.240;20.902;2023-07-08T08:29:52;7.30;;;1.80;;
34892;SDS011;21106;52.240;20.902;2023-07-08T08:34:59;5.00;;;1.30;;
34892;SDS011;21106;52.240;20.902;2023-07-08T08:40:06;4.60;;;2.00;;
34892;SDS011;21106;52.240;20.902;2023-07-08T08:45:19;3.20;;;1.90;;
34892;SDS011;21106;52.240;20.902;2023-07-08T08:50:39;3.30;;;1.30;;
34892;SDS011;21106;52.240;20.902;2023-07-08T08:55:57;3.50;;;1.70;;
34892;SDS011;21106;52.240;20.902;2023-07-08T09:01:12;3.70;;;1.50;;
34892;SDS011;21106;52.240;20.902;2023-07-08T09:06:31;5.00;;;2.00;;
34892;SDS011;21106;52.240;20.902;2023-07-08T09:21:57;20.50;;;3.70;;
34892;SDS011;21106;52.240;20.902;2023-07-08T09:27:09;5.80;;;2.10;;
34892;SDS011;21106;52.240;20.902;2023-07-08T09:32:17;3.50;;;1.70;;
34892;SDS011;21106;52.240;20.902;2023-07-08T09:37:27;4.40;;;2.00;;
34892;SDS011;21106;52.240;20.902;2023-07-08T09:42:34;3.90;;;1.50;;
34892;SDS011;21106;52.240;20.902;2023-07-08T09:47:42;5.60;;;1.70;;
34892;SDS011;21106;52.240;20.902;2023-07-08T09:52:55;3.20;;;1.60;;
34892;SDS011;21106;52.240;20.902;2023-07-08T09:58:08;3.60;;;1.70;;
34892;SDS011;21106;52.240;20.902;2023-07-08T10:03:20;2.70;;;1.70;;
34892;SDS011;21106;52.240;20.902;2023-07-08T10:08:34;4.20;;;1.80;;
34892;SDS011;21106;52.240;20.902;2023-07-08T10:13:50;5.50;;;1.60;;
34892;SDS011;21106;52.240;20.902;2023-07-08T10:18:59;2.00;;;1.30;;
34892;SDS011;21106;52.240;20.902;2023-07-08T10:45:13;5.20;;;1.70;;
34892;SDS011;21106;52.240;20.902;2023-07-08T10:50:45;4.60;;;1.70;;
34892;SDS011;21106;52.240;20.902;2023-07-08T10:56:12;6.00;;;2.00;;
34892;SDS011;21106;52.240;20.902;2023-07-08T11:12:03;3.90;;;1.80;;
34892;SDS011;21106;52.240;20.902;2023-07-08T11:17:26;2.30;;;1.60;;
34892;SDS011;21106;52.240;20.902;2023-07-08T11:22:36;3.00;;;1.70;;
34892;SDS011;21106;52.240;20.902;2023-07-08T11:27:50;4.40;;;1.50;;
34892;SDS011;21106;52.240;20.902;2023-07-08T11:33:03;4.20;;;1.80;;
34892;SDS011;21106;52.240;20.902;2023-07-08T11:38:15;2.10;;;1.50;;
34892;SDS011;21106;52.240;20.902;2023-07-08T11:43:23;4.50;;;2.10;;
34892;SDS011;21106;52.240;20.902;2023-07-08T11:48:50;7.60;;;2.00;;
34892;SDS011;21106;52.240;20.902;2023-07-08T11:53:59;3.30;;;1.90;;
34892;SDS011;21106;52.240;20.902;2023-07-08T11:59:18;4.20;;;2.20;;
34892;SDS011;21106;52.240;20.902;2023-07-08T12:04:27;2.00;;;1.70;;
34892;SDS011;21106;52.240;20.902;2023-07-08T12:09:44;3.70;;;1.80;;
34892;SDS011;21106;52.240;20.902;2023-07-08T12:20:41;4.10;;;1.80;;
34892;SDS011;21106;52.240;20.902;2023-07-08T12:25:50;3.40;;;1.80;;
34892;SDS011;21106;52.240;20.902;2023-07-08T12:30:58;3.30;;;1.80;;
34892;SDS011;21106;52.240;20.902;2023-07-08T12:36:09;5.60;;;1.90;;
34892;SDS011;21106;52.240;20.902;2023-07-08T12:41:23;4.80;;;3.40;;
34892;SDS011;21106;52.240;20.902;2023-07-08T12:46:30;9.60;;;2.70;;
34892;SDS011;21106;52.240;20.902;2023-07-08T12:51:37;4.80;;;2.80;;
34892;SDS011;21106;52.240;20.902;2023-07-08T12:56:49;4.20;;;2.40;;
34892;SDS011;21106;52.240;20.902;2023-07-08T13:01:56;3.60;;;3.20;;
34892;SDS011;21106;52.240;20.902;2023-07-08T13:07:04;3.20;;;2.00;;
34892;SDS011;21106;52.240;20.902;2023-07-08T13:12:13;4.90;;;2.90;;
34892;SDS011;21106;52.240;20.902;2023-07-08T13:17:28;4.40;;;1.90;;
34892;SDS011;21106;52.240;20.902;2023-07-08T13:22:45;5.30;;;2.60;;
34892;SDS011;21106;52.240;20.902;2023-07-08T13:28:22;5.30;;;2.70;;
34892;SDS011;21106;52.240;20.902;2023-07-08T13:33:32;4.10;;;2.20;;
34892;SDS011;21106;52.240;20.902;2023-07-08T13:38:40;3.90;;;2.10;;
34892;SDS011;21106;52.240;20.902;2023-07-08T13:43:47;5.10;;;2.60;;
34892;SDS011;21106;52.240;20.902;2023-07-08T13:48:54;3.50;;;2.20;;
34892;SDS011;21106;52.240;20.902;2023-07-08T13:54:01;4.40;;;2.30;;
34892;SDS011;21106;52.240;20.902;2023-07-08T13:59:22;2.70;;;1.90;;
34892;SDS011;21106;52.240;20.902;2023-07-08T14:04:32;2.70;;;2.00;;
34892;SDS011;21106;52.240;20.902;2023-07-08T14:09:41;4.60;;;2.20;;
34892;SDS011;21106;52.240;20.902;2023-07-08T14:14:47;3.20;;;2.00;;
34892;SDS011;21106;52.240;20.902;2023-07-08T14:19:53;2.70;;;2.10;;
34892;SDS011;21106;52.240;20.902;2023-07-08T14:25:01;7.10;;;2.30;;
34892;SDS011;21106;52.240;20.902;2023-07-08T14:30:12;6.80;;;2.40;;
34892;SDS011;21106;52.240;20.902;2023-07-08T14:35:26;4.10;;;2.00;;
34892;SDS011;21106;52.240;20.902;2023-07-08T14:40:35;4.90;;;2.10;;
34892;SDS011;21106;52.240;20.902;2023-07-08T14:50:59;7.50;;;2.10;;
34892;SDS011;21106;52.240;20.902;2023-07-08T14:56:08;3.00;;;1.80;;
34892;SDS011;21106;52.240;20.902;2023-07-08T15:01:20;6.80;;;2.70;;
34892;SDS011;21106;52.240;20.902;2023-07-08T15:06:29;3.60;;;1.90;;
34892;SDS011;21106;52.240;20.902;2023-07-08T15:11:36;5.70;;;2.20;;
34892;SDS011;21106;52.240;20.902;2023-07-08T15:16:43;6.60;;;2.40;;
34892;SDS011;21106;52.240;20.902;2023-07-08T15:21:51;3.20;;;2.00;;
34892;SDS011;21106;52.240;20.902;2023-07-08T15:26:57;2.90;;;2.00;;
34892;SDS011;21106;52.240;20.902;2023-07-08T15:32:12;10.70;;;2.20;;
34892;SDS011;21106;52.240;20.902;2023-07-08T15:37:22;6.40;;;2.30;;
34892;SDS011;21106;52.240;20.902;2023-07-08T15:42:28;4.90;;;2.30;;
34892;SDS011;21106;52.240;20.902;2023-07-08T15:47:35;7.80;;;2.20;;
34892;SDS011;21106;52.240;20.902;2023-07-08T15:52:42;6.70;;;2.30;;
34892;SDS011;21106;52.240;20.902;2023-07-08T15:57:59;3.60;;;2.70;;
34892;SDS011;21106;52.240;20.902;2023-07-08T16:08:19;4.10;;;2.20;;
34892;SDS011;21106;52.240;20.902;2023-07-08T16:13:27;8.40;;;2.20;;
34892;SDS011;21106;52.240;20.902;2023-07-08T16:18:36;4.50;;;2.20;;
34892;SDS011;21106;52.240;20.902;2023-07-08T16:23:42;3.90;;;2.20;;
34892;SDS011;21106;52.240;20.902;2023-07-08T16:28:48;5.30;;;2.10;;
34892;SDS011;21106;52.240;20.902;2023-07-08T16:33:55;6.30;;;2.00;;
34892;SDS011;21106;52.240;20.902;2023-07-08T16:39:01;2.70;;;1.80;;
34892;SDS011;21106;52.240;20.902;2023-07-08T16:44:15;3.10;;;2.00;;
34892;SDS011;21106;52.240;20.902;2023-07-08T16:49:22;6.00;;;2.00;;
34892;SDS011;21106;52.240;20.902;2023-07-08T16:54:30;4.20;;;1.90;;
34892;SDS011;21106;52.240;20.902;2023-07-08T16:59:44;4.10;;;2.50;;
34892;SDS011;21106;52.240;20.902;2023-07-08T17:04:52;4.00;;;2.20;;
34892;SDS011;21106;52.240;20.902;2023-07-08T17:10:03;8.60;;;2.40;;
34892;SDS011;21106;52.240;20.902;2023-07-08T17:15:10;2.70;;;2.10;;
34892;SDS011;21106;52.240;20.902;2023-07-08T17:25:59;4.70;;;2.00;;
34892;SDS011;21106;52.240;20.902;2023-07-08T17:31:05;6.60;;;2.20;;
34892;SDS011;21106;52.240;20.902;2023-07-08T17:36:42;4.40;;;2.40;;
34892;SDS011;21106;52.240;20.902;2023-07-08T17:41:47;6.30;;;2.10;;
34892;SDS011;21106;52.240;20.902;2023-07-08T17:46:57;3.30;;;2.00;;
34892;SDS011;21106;52.240;20.902;2023-07-08T17:57:20;3.10;;;2.10;;
34892;SDS011;21106;52.240;20.902;2023-07-08T18:02:26;5.50;;;2.20;;
34892;SDS011;21106;52.240;20.902;2023-07-08T18:07:33;5.00;;;2.60;;
34892;SDS011;21106;52.240;20.902;2023-07-08T18:12:39;6.10;;;2.70;;
34892;SDS011;21106;52.240;20.902;2023-07-08T18:17:47;4.60;;;2.80;;
34892;SDS011;21106;52.240;20.902;2023-07-08T18:22:54;4.80;;;2.30;;
34892;SDS011;21106;52.240;20.902;2023-07-08T18:28:01;6.20;;;2.70;;
34892;SDS011;21106;52.240;20.902;2023-07-08T18:33:11;3.50;;;2.50;;
34892;SDS011;21106;52.240;20.902;2023-07-08T18:38:19;5.90;;;2.50;;
34892;SDS011;21106;52.240;20.902;2023-07-08T18:43:26;3.20;;;2.40;;
34892;SDS011;21106;52.240;20.902;2023-07-08T18:48:35;4.30;;;2.80;;
34892;SDS011;21106;52.240;20.902;2023-07-08T18:53:42;5.50;;;2.60;;
34892;SDS011;21106;52.240;20.902;2023-07-08T18:58:48;6.90;;;2.70;;
34892;SDS011;21106;52.240;20.902;2023-07-08T19:03:54;3.50;;;2.30;;
34892;SDS011;21106;52.240;20.902;2023-07-08T19:09:03;7.80;;;2.80;;
34892;SDS011;21106;52.240;20.902;2023-07-08T19:14:13;8.20;;;2.60;;
34892;SDS011;21106;52.240;20.902;2023-07-08T19:19:21;5.50;;;2.60;;
34892;SDS011;21106;52.240;20.902;2023-07-08T19:24:35;5.90;;;3.20;;
34892;SDS011;21106;52.240;20.902;2023-07-08T19:29:41;4.30;;;2.70;;
34892;SDS011;21106;52.240;20.902;2023-07-08T19:34:47;6.70;;;2.80;;
34892;SDS011;21106;52.240;20.902;2023-07-08T19:40:09;7.60;;;3.00;;
34892;SDS011;21106;52.240;20.902;2023-07-08T19:45:19;5.40;;;3.10;;
34892;SDS011;21106;52.240;20.902;2023-07-08T19:50:44;8.10;;;3.70;;
34892;SDS011;21106;52.240;20.902;2023-07-08T19:55:52;6.80;;;4.00;;
34892;SDS011;21106;52.240;20.902;2023-07-08T20:00:58;7.70;;;3.20;;
34892;SDS011;21106;52.240;20.902;2023-07-08T20:06:12;7.70;;;3.50;;
34892;SDS011;21106;52.240;20.902;2023-07-08T20:11:23;6.50;;;3.30;;
34892;SDS011;21106;52.240;20.902;2023-07-08T20:16:30;5.50;;;3.70;;
34892;SDS011;21106;52.240;20.902;2023-07-08T20:21:36;7.60;;;3.40;;
34892;SDS011;21106;52.240;20.902;2023-07-08T20:26:43;7.80;;;3.70;;
34892;SDS011;21106;52.240;20.902;2023-07-08T20:31:53;8.20;;;3.80;;
34892;SDS011;21106;52.240;20.902;2023-07-08T20:36:59;6.40;;;3.30;;
34892;SDS011;21106;52.240;20.902;2023-07-08T20:42:09;4.70;;;3.70;;
34892;SDS011;21106;52.240;20.902;2023-07-08T20:47:18;5.90;;;3.30;;
34892;SDS011;21106;52.240;20.902;2023-07-08T20:52:24;5.10;;;2.80;;
34892;SDS011;21106;52.240;20.902;2023-07-08T20:57:31;5.40;;;3.40;;
34892;SDS011;21106;52.240;20.902;2023-07-08T21:02:37;8.20;;;3.50;;
34892;SDS011;21106;52.240;20.902;2023-07-08T21:07:43;8.40;;;3.30;;
34892;SDS011;21106;52.240;20.902;2023-07-08T21:12:50;4.40;;;3.00;;
34892;SDS011;21106;52.240;20.902;2023-07-08T21:18:11;4.20;;;3.00;;
34892;SDS011;21106;52.240;20.902;2023-07-08T21:23:26;6.60;;;3.30;;
34892;SDS011;21106;52.240;20.902;2023-07-08T21:28:35;6.00;;;3.40;;
34892;SDS011;21106;52.240;20.902;2023-07-08T21:33:44;7.40;;;3.20;;
34892;SDS011;21106;52.240;20.902;2023-07-08T21:38:51;6.50;;;3.10;;
34892;SDS011;21106;52.240;20.902;2023-07-08T21:43:59;7.30;;;3.10;;
34892;SDS011;21106;52.240;20.902;2023-07-08T21:49:05;7.30;;;3.70;;
34892;SDS011;21106;52.240;20.902;2023-07-08T21:54:12;12.30;;;3.70;;
34892;SDS011;21106;52.240;20.902;2023-07-08T21:59:19;7.60;;;4.20;;
34892;SDS011;21106;52.240;20.902;2023-07-08T22:04:34;7.40;;;3.70;;
34892;SDS011;21106;52.240;20.902;2023-07-08T22:09:42;7.80;;;4.00;;
34892;SDS011;21106;52.240;20.902;2023-07-08T22:14:52;9.20;;;4.10;;
34892;SDS011;21106;52.240;20.902;2023-07-08T22:19:59;10.00;;;4.40;;
34892;SDS011;21106;52.240;20.902;2023-07-08T22:25:10;8.50;;;4.10;;
34892;SDS011;21106;52.240;20.902;2023-07-08T22:30:22;6.60;;;4.40;;
34892;SDS011;21106;52.240;20.902;2023-07-08T22:35:29;7.40;;;4.30;;
34892;SDS011;21106;52.240;20.902;2023-07-08T22:40:39;5.20;;;3.80;;
34892;SDS011;21106;52.240;20.902;2023-07-08T22:45:47;6.20;;;3.20;;
34892;SDS011;21106;52.240;20.902;2023-07-08T22:56:09;8.80;;;3.80;;
34892;SDS011;21106;52.240;20.902;2023-07-08T23:01:22;6.00;;;3.50;;
34892;SDS011;21106;52.240;20.902;2023-07-08T23:06:28;6.70;;;3.70;;
34892;SDS011;21106;52.240;20.902;2023-07-08T23:11:35;6.20;;;3.40;;
34892;SDS011;21106;52.240;20.902;2023-07-08T23:16:41;4.60;;;3.70;;
34892;SDS011;21106;52.240;20.902;2023-07-08T23:21:48;6.80;;;3.80;;
34892;SDS011;21106;52.240;20.902;2023-07-08T23:26:54;8.40;;;4.10;;
34892;SDS011;21106;52.240;20.902;2023-07-08T23:32:01;6.90;;;4.80;;
34892;SDS011;21106;52.240;20.902;2023-07-08T23:37:07;10.80;;;5.10;;
34892;SDS011;21106;52.240;20.902;2023-07-08T23:42:19;9.80;;;5.30;;
34892;SDS011;21106;52.240;20.902;2023-07-08T23:47:25;5.50;;;3.80;;
34892;SDS011;21106;52.240;20.902;2023-07-08T23:52:32;9.60;;;4.10;;
34892;SDS011;21106;52.240;20.902;2023-07-08T23:57:38;7.60;;;3.50;;
